createdAt,value
2023-05-13T00:00:30.676Z,97670.25
2023-05-13T00:03:00.438Z,97674.81
2023-05-13T00:05:28.660Z,97678.34
2023-05-13T00:07:57.067Z,97677.47
2023-05-13T00:10:26.046Z,97674.81
2023-05-13T00:12:54.215Z,97670.38
2023-05-13T00:15:22.530Z,97672.19
2023-05-13T00:17:50.813Z,97663.63
2023-05-13T00:20:20.734Z,97600.06
2023-05-13T00:22:49.110Z,97667.00
2023-05-13T00:25:17.587Z,97673.13
2023-05-13T00:27:45.794Z,97671.38
2023-05-13T00:30:14.155Z,97596.63
2023-05-13T00:32:42.497Z,97656.44
2023-05-13T00:35:11.340Z,97654.00
2023-05-13T00:37:40.914Z,97655.81
2023-05-13T00:40:18.403Z,97667.97
2023-05-13T00:42:46.736Z,97612.34
2023-05-13T00:45:15.066Z,97660.44
2023-05-13T00:47:44.381Z,97666.94
2023-05-13T00:50:14.794Z,97641.28
2023-05-13T00:52:44.783Z,97672.97
2023-05-13T00:55:13.336Z,97654.09
2023-05-13T00:57:41.531Z,97666.19
2023-05-13T01:00:11.718Z,97678.63
2023-05-13T01:02:47.124Z,97684.66
2023-05-13T01:05:23.749Z,97679.63
2023-05-13T01:08:02.136Z,97670.84
2023-05-13T01:10:38.632Z,97677.53
2023-05-13T01:13:12.337Z,97615.06
2023-05-13T01:15:46.821Z,97681.84
2023-05-13T01:18:20.561Z,97689.16
2023-05-13T01:20:48.888Z,97691.28
2023-05-13T01:23:18.437Z,97699.22
2023-05-13T01:25:46.915Z,97693.22
2023-05-13T01:28:15.297Z,97691.34
2023-05-13T01:30:43.475Z,97695.84
2023-05-13T01:33:12.358Z,97692.16
2023-05-13T01:35:40.720Z,97693.88
2023-05-13T01:38:09.050Z,97677.66
2023-05-13T01:40:39.779Z,97670.03
2023-05-13T01:43:08.539Z,97689.75
2023-05-13T01:45:36.691Z,97695.06
2023-05-13T01:48:05.270Z,97689.75
2023-05-13T01:50:33.861Z,97693.22
2023-05-13T01:53:02.084Z,97686.28
2023-05-13T01:55:30.216Z,97691.16
2023-05-13T01:57:59.770Z,97685.88
2023-05-13T02:00:28.026Z,97681.47
2023-05-13T02:02:56.231Z,97689.31
2023-05-13T02:05:24.500Z,97689.28
2023-05-13T02:07:52.749Z,97689.31
2023-05-13T02:10:21.030Z,97691.03
2023-05-13T02:12:49.424Z,97694.50
2023-05-13T02:15:19.144Z,97691.03
2023-05-13T02:17:47.359Z,97693.66
2023-05-13T02:20:15.999Z,97699.75
2023-05-13T02:22:44.152Z,97699.63
2023-05-13T02:25:12.472Z,97687.66
2023-05-13T02:27:40.659Z,97704.03
2023-05-13T02:30:09.738Z,97704.81
2023-05-13T02:32:42.862Z,97707.53
2023-05-13T02:35:11.492Z,97705.66
2023-05-13T02:37:39.583Z,97707.34
2023-05-13T02:40:09.049Z,97708.19
2023-05-13T02:42:37.198Z,97684.97
2023-05-13T02:45:05.841Z,97711.03
2023-05-13T02:47:34.209Z,97685.38
2023-05-13T02:50:05.926Z,97704.19
2023-05-13T02:52:35.958Z,97683.81
2023-05-13T02:55:04.434Z,97635.50
2023-05-13T02:57:32.614Z,97709.31
2023-05-13T03:00:00.917Z,97709.34
2023-05-13T03:02:29.394Z,97706.75
2023-05-13T03:04:57.820Z,97638.13
2023-05-13T03:07:27.359Z,97711.13
2023-05-13T03:09:55.665Z,97718.16
2023-05-13T03:12:24.066Z,97718.09
2023-05-13T03:14:52.209Z,97715.53
2023-05-13T03:17:20.551Z,97719.81
2023-05-13T03:19:48.885Z,97720.72
2023-05-13T03:22:17.062Z,97720.72
2023-05-13T03:24:46.625Z,97719.81
2023-05-13T03:27:14.840Z,97724.19
2023-05-13T03:29:43.015Z,97706.88
2023-05-13T03:32:11.214Z,97718.06
2023-05-13T03:34:39.375Z,97722.38
2023-05-13T03:37:07.901Z,97727.50
2023-05-13T03:39:36.499Z,97718.63
2023-05-13T03:42:06.520Z,97717.72
2023-05-13T03:44:34.657Z,97705.03
2023-05-13T03:47:02.811Z,97712.84
2023-05-13T03:49:31.030Z,97731.94
2023-05-13T03:51:59.134Z,97690.66
2023-05-13T03:54:27.290Z,97733.75
2023-05-13T03:56:55.466Z,97732.03
2023-05-13T03:59:25.224Z,97724.34
2023-05-13T04:01:53.413Z,97732.03
2023-05-13T04:04:21.660Z,97732.00
2023-05-13T04:06:49.836Z,97736.38
2023-05-13T04:09:17.984Z,97734.56
2023-05-13T04:11:46.186Z,97669.28
2023-05-13T04:14:14.323Z,97736.31
2023-05-13T04:16:43.908Z,97741.56
2023-05-13T04:19:12.187Z,97741.53
2023-05-13T04:21:40.452Z,97743.22
2023-05-13T04:24:08.756Z,97745.84
2023-05-13T04:26:39.017Z,97745.75
2023-05-13T04:29:07.177Z,97749.22
2023-05-13T04:31:35.367Z,97750.91
2023-05-13T04:34:05.227Z,97745.63
2023-05-13T04:36:33.362Z,97703.56
2023-05-13T04:39:01.519Z,97745.50
2023-05-13T04:41:29.712Z,97752.59
2023-05-13T04:43:58.137Z,97757.72
2023-05-13T04:46:26.310Z,97757.66
2023-05-13T04:48:54.440Z,97745.75
2023-05-13T04:51:24.238Z,97754.31
2023-05-13T04:53:52.735Z,97749.31
2023-05-13T04:56:20.840Z,97762.22
2023-05-13T04:58:48.978Z,97749.28
2023-05-13T05:01:17.205Z,97751.84
2023-05-13T05:03:45.476Z,97767.47
2023-05-13T05:06:13.650Z,97774.34
2023-05-13T05:08:43.712Z,97768.94
2023-05-13T05:11:11.886Z,97712.09
2023-05-13T05:13:40.066Z,97770.56
2023-05-13T05:16:09.037Z,97779.34
2023-05-13T05:18:37.268Z,97776.75
2023-05-13T05:21:05.753Z,97761.94
2023-05-13T05:23:34.056Z,97752.34
2023-05-13T05:26:11.108Z,97779.06
2023-05-13T05:28:40.422Z,97791.25
2023-05-13T05:31:09.792Z,97780.03
2023-05-13T05:33:38.315Z,97781.75
2023-05-13T05:36:07.112Z,97783.34
2023-05-13T05:38:35.279Z,97784.25
2023-05-13T05:41:05.232Z,97794.78
2023-05-13T05:43:33.461Z,97792.22
2023-05-13T05:46:01.656Z,97779.28
2023-05-13T05:48:29.813Z,97796.66
2023-05-13T05:50:58.002Z,97797.53
2023-05-13T05:53:26.172Z,97798.38
2023-05-13T05:55:54.295Z,97802.72
2023-05-13T05:58:23.845Z,97796.53
2023-05-13T06:00:52.057Z,97800.03
2023-05-13T06:03:20.360Z,97800.06
2023-05-13T06:05:48.572Z,97809.50
2023-05-13T06:08:16.776Z,97769.00
2023-05-13T06:10:45.577Z,97807.78
2023-05-13T06:13:13.720Z,97808.47
2023-05-13T06:15:43.284Z,97805.91
2023-05-13T06:18:11.441Z,97798.16
2023-05-13T06:20:39.550Z,97813.78
2023-05-13T06:23:07.707Z,97817.25
2023-05-13T06:25:35.929Z,97822.41
2023-05-13T06:28:06.286Z,97810.41
2023-05-13T06:30:34.423Z,97811.22
2023-05-13T06:33:04.057Z,97803.72
2023-05-13T06:35:33.529Z,97810.53
2023-05-13T06:38:01.729Z,97824.38
2023-05-13T06:40:29.947Z,97826.13
2023-05-13T06:42:58.155Z,97810.59
2023-05-13T06:45:26.368Z,97832.03
2023-05-13T06:47:54.937Z,97827.53
2023-05-13T06:50:24.701Z,97832.78
2023-05-13T06:52:52.995Z,97834.56
2023-05-13T06:55:21.785Z,97835.50
2023-05-13T06:57:49.904Z,97828.72
2023-05-13T07:00:19.088Z,97843.38
2023-05-13T07:02:47.425Z,97839.00
2023-05-13T07:05:15.702Z,97760.72
2023-05-13T07:07:46.040Z,97843.28
2023-05-13T07:10:14.209Z,97786.50
2023-05-13T07:12:42.386Z,97850.19
2023-05-13T07:15:11.260Z,97851.16
2023-05-13T07:17:39.460Z,97849.38
2023-05-13T07:20:09.188Z,97857.09
2023-05-13T07:22:37.528Z,97856.31
2023-05-13T07:25:08.040Z,97855.53
2023-05-13T07:27:36.207Z,97863.38
2023-05-13T07:30:04.444Z,97863.38
2023-05-13T07:32:32.736Z,97860.72
2023-05-13T07:35:01.367Z,97863.22
2023-05-13T07:37:29.626Z,97860.50
2023-05-13T07:39:57.810Z,97864.00
2023-05-13T07:42:27.375Z,97844.13
2023-05-13T07:44:55.774Z,97836.09
2023-05-13T07:47:24.024Z,97863.59
2023-05-13T07:49:52.232Z,97856.59
2023-05-13T07:52:20.643Z,97859.09
2023-05-13T07:54:48.805Z,97856.22
2023-05-13T07:57:16.969Z,97859.59
2023-05-13T07:59:46.717Z,97862.09
2023-05-13T08:02:14.930Z,97862.19
2023-05-13T08:04:43.064Z,97864.84
2023-05-13T08:07:11.697Z,97861.16
2023-05-13T08:09:39.846Z,97850.69
2023-05-13T08:12:08.560Z,97862.91
2023-05-13T08:14:37.527Z,97653.09
2023-05-13T08:17:08.266Z,97867.19
2023-05-13T08:19:37.394Z,97872.44
2023-05-13T08:22:06.003Z,97865.53
2023-05-13T08:24:34.129Z,97858.75
2023-05-13T08:27:02.784Z,97876.03
2023-05-13T08:29:31.088Z,97875.34
2023-05-13T08:31:59.324Z,97801.56
2023-05-13T08:34:28.956Z,97852.88
2023-05-13T08:36:57.110Z,97868.34
2023-05-13T08:39:25.248Z,97809.81
2023-05-13T08:41:57.018Z,97873.53
2023-05-13T08:44:29.269Z,97870.75
2023-05-13T08:47:06.758Z,97866.41
2023-05-13T08:49:36.442Z,97872.34
2023-05-13T08:52:04.841Z,97872.34
2023-05-13T08:54:33.712Z,97877.59
2023-05-13T08:57:01.863Z,97877.59
2023-05-13T08:59:30.029Z,97764.63
2023-05-13T09:02:00.373Z,97856.75
2023-05-13T09:04:28.557Z,97875.00
2023-05-13T09:06:58.625Z,97870.56
2023-05-13T09:09:26.794Z,97881.13
2023-05-13T09:11:54.903Z,97870.00
2023-05-13T09:14:23.236Z,97887.94
2023-05-13T09:16:51.540Z,97877.31
2023-05-13T09:19:19.848Z,97874.63
2023-05-13T09:21:48.127Z,97873.78
2023-05-13T09:24:21.469Z,97878.09
2023-05-13T09:26:51.034Z,97877.00
2023-05-13T09:29:23.521Z,97868.41
2023-05-13T09:31:53.743Z,97846.78
2023-05-13T09:34:29.589Z,97888.09
2023-05-13T09:37:08.524Z,97895.97
2023-05-13T09:39:42.513Z,97890.53
2023-05-13T09:42:17.122Z,97886.28
2023-05-13T09:44:46.517Z,97885.50
2023-05-13T09:47:15.793Z,97874.38
2023-05-13T09:49:46.134Z,97872.75
2023-05-13T09:52:18.219Z,97884.91
2023-05-13T09:54:47.739Z,97882.34
2023-05-13T09:57:16.380Z,97889.31
2023-05-13T09:59:44.537Z,97882.34
2023-05-13T10:02:16.620Z,97875.31
2023-05-13T10:04:45.212Z,97885.63
2023-05-13T10:07:13.857Z,97885.34
2023-05-13T10:09:43.553Z,97881.56
2023-05-13T10:12:16.236Z,97876.47
2023-05-13T10:14:45.432Z,97879.56
2023-05-13T10:17:14.743Z,97882.22
2023-05-13T10:19:43.638Z,97882.88
2023-05-13T10:22:13.170Z,97881.97
2023-05-13T10:24:42.777Z,97871.53
2023-05-13T10:27:13.788Z,97875.78
2023-05-13T10:29:44.552Z,97867.13
2023-05-13T10:32:14.373Z,97864.41
2023-05-13T10:34:44.234Z,97880.00
2023-05-13T10:37:31.469Z,97883.69
2023-05-13T10:40:33.272Z,97887.47
2023-05-13T10:43:12.342Z,97885.88
2023-05-13T10:45:40.499Z,97887.47
2023-05-13T10:48:09.514Z,97888.34
2023-05-13T10:50:39.296Z,97888.25
2023-05-13T10:53:11.396Z,97890.03
2023-05-13T10:55:46.288Z,97892.41
2023-05-13T10:58:16.691Z,97890.78
2023-05-13T11:00:46.413Z,97888.16
2023-05-13T11:03:16.868Z,97888.16
2023-05-13T11:06:15.756Z,97853.88
2023-05-13T11:08:45.410Z,97871.03
2023-05-13T11:11:25.124Z,97888.06
2023-05-13T11:13:56.132Z,97880.31
2023-05-13T11:16:24.588Z,97889.75
2023-05-13T11:18:53.499Z,97890.75
2023-05-13T11:21:32.535Z,97878.97
2023-05-13T11:24:04.161Z,97895.47
2023-05-13T11:26:48.952Z,97896.44
2023-05-13T11:29:29.643Z,97876.84
2023-05-13T11:32:01.345Z,97901.88
2023-05-13T11:34:30.194Z,97899.38
2023-05-13T11:37:08.332Z,97904.72
2023-05-13T11:39:37.425Z,97898.88
2023-05-13T11:42:09.507Z,97909.16
2023-05-13T11:44:46.623Z,97908.34
2023-05-13T11:47:14.815Z,97905.69
2023-05-13T11:49:44.408Z,97902.19
2023-05-13T11:52:15.268Z,97924.88
2023-05-13T11:54:46.560Z,97903.84
2023-05-13T11:57:21.465Z,97902.09
2023-05-13T12:00:01.345Z,97897.84
2023-05-13T12:02:30.569Z,97906.47
2023-05-13T12:05:02.048Z,97840.94
2023-05-13T12:07:30.259Z,97914.13
2023-05-13T12:09:59.839Z,97920.16
2023-05-13T12:12:29.180Z,97912.41
2023-05-13T12:15:00.165Z,97911.00
2023-05-13T12:17:30.258Z,97904.25
2023-05-13T12:20:12.068Z,97930.16
2023-05-13T12:22:52.681Z,97920.56
2023-05-13T12:25:43.606Z,97924.13
2023-05-13T12:28:17.826Z,97934.69
2023-05-13T12:30:52.365Z,97926.94
2023-05-13T12:33:23.485Z,97939.38
2023-05-13T12:35:53.366Z,97934.13
2023-05-13T12:38:24.009Z,97907.22
2023-05-13T12:40:53.216Z,97902.78
2023-05-13T12:43:21.669Z,97933.66
2023-05-13T12:45:54.825Z,97934.63
2023-05-13T12:48:26.955Z,97937.09
2023-05-13T12:50:56.565Z,97900.81
2023-05-13T12:53:24.833Z,97937.13
2023-05-13T12:55:53.011Z,97935.53
2023-05-13T12:58:21.195Z,97838.28
2023-05-13T13:00:49.394Z,97938.19
2023-05-13T13:03:17.570Z,97933.78
2023-05-13T13:05:47.136Z,97937.13
2023-05-13T13:08:15.250Z,97931.53
2023-05-13T13:10:43.471Z,97934.94
2023-05-13T13:13:11.648Z,97935.81
2023-05-13T13:15:40.070Z,97925.25
2023-05-13T13:18:08.616Z,97922.50
2023-05-13T13:20:37.708Z,97922.47
2023-05-13T13:23:07.361Z,97901.47
2023-05-13T13:25:35.478Z,97914.31
2023-05-13T13:28:03.690Z,97911.63
2023-05-13T13:30:32.023Z,97910.75
2023-05-13T13:33:00.298Z,97907.25
2023-05-13T13:35:28.632Z,97917.78
2023-05-13T13:37:56.730Z,97910.75
2023-05-13T13:40:26.276Z,97911.53
2023-05-13T13:42:54.481Z,97907.19
2023-05-13T13:45:24.242Z,97899.44
2023-05-13T13:47:52.437Z,97894.97
2023-05-13T13:50:20.837Z,97904.41
2023-05-13T13:52:49.100Z,97906.03
2023-05-13T13:55:17.298Z,97907.88
2023-05-13T13:57:46.907Z,97903.47
2023-05-13T14:00:16.666Z,97898.97
2023-05-13T14:02:45.203Z,97881.78
2023-05-13T14:05:14.141Z,97895.66
2023-05-13T14:07:42.309Z,97898.34
2023-05-13T14:10:11.378Z,97894.13
2023-05-13T14:12:39.559Z,97910.19
2023-05-13T14:15:10.097Z,97906.13
2023-05-13T14:17:38.266Z,97903.63
2023-05-13T14:20:07.999Z,97880.63
2023-05-13T14:22:36.379Z,97909.22
2023-05-13T14:25:04.684Z,97897.16
2023-05-13T14:27:34.141Z,97899.63
2023-05-13T14:30:02.278Z,97898.75
2023-05-13T14:32:31.905Z,97892.53
2023-05-13T14:35:00.110Z,97899.75
2023-05-13T14:37:28.631Z,97902.09
2023-05-13T14:39:57.519Z,97906.41
2023-05-13T14:42:25.882Z,97900.25
2023-05-13T14:44:54.042Z,97903.44
2023-05-13T14:47:22.275Z,97896.88
2023-05-13T14:49:51.790Z,97897.59
2023-05-13T14:52:19.921Z,97887.69
2023-05-13T14:54:48.634Z,97900.53
2023-05-13T14:57:16.838Z,97895.19
2023-05-13T14:59:45.044Z,97898.03
2023-05-13T15:02:14.068Z,97899.00
2023-05-13T15:04:42.257Z,97895.53
2023-05-13T15:07:11.880Z,97892.09
2023-05-13T15:09:39.984Z,97892.75
2023-05-13T15:12:09.298Z,97888.75
2023-05-13T15:14:37.496Z,97905.28
2023-05-13T15:17:10.810Z,97632.06
2023-05-13T15:19:39.599Z,97892.53
2023-05-13T15:22:07.736Z,97878.97
2023-05-13T15:24:37.479Z,97891.03
2023-05-13T15:27:05.944Z,97885.88
2023-05-13T15:29:34.061Z,97883.31
2023-05-13T15:32:02.191Z,97871.34
2023-05-13T15:34:30.350Z,97874.69
2023-05-13T15:36:58.591Z,97813.31
2023-05-13T15:39:26.701Z,97877.63
2023-05-13T15:41:56.435Z,97890.34
2023-05-13T15:44:24.636Z,97896.75
2023-05-13T15:46:52.945Z,97901.16
2023-05-13T15:49:21.368Z,97900.31
2023-05-13T15:51:49.450Z,97900.19
2023-05-13T15:54:17.601Z,97895.91
2023-05-13T15:56:46.164Z,97905.72
2023-05-13T15:59:15.697Z,97906.59
2023-05-13T16:01:44.097Z,97911.88
2023-05-13T16:04:12.350Z,97906.59
2023-05-13T16:06:40.576Z,97896.81
2023-05-13T16:09:08.804Z,97848.88
2023-05-13T16:11:36.937Z,97897.13
2023-05-13T16:14:07.563Z,97880.81
2023-05-13T16:16:37.206Z,97884.78
2023-05-13T16:19:05.459Z,97884.66
2023-05-13T16:21:33.644Z,97882.75
2023-05-13T16:24:01.750Z,97879.28
2023-05-13T16:26:30.439Z,97887.41
2023-05-13T16:28:58.597Z,97880.44
2023-05-13T16:31:26.846Z,97872.63
2023-05-13T16:33:56.419Z,97883.94
2023-05-13T16:36:24.563Z,97883.06
2023-05-13T16:38:52.722Z,97883.25
2023-05-13T16:41:21.217Z,97877.19
2023-05-13T16:43:49.333Z,97872.69
2023-05-13T16:46:17.675Z,97875.25
2023-05-13T16:48:46.105Z,97814.06
2023-05-13T16:51:15.720Z,97867.31
2023-05-13T16:53:43.903Z,97873.38
2023-05-13T16:56:12.071Z,97872.44
2023-05-13T16:58:40.236Z,97888.28
2023-05-13T17:01:08.522Z,97893.69
2023-05-13T17:03:36.744Z,97893.56
2023-05-13T17:06:07.290Z,97891.81
2023-05-13T17:08:36.976Z,97884.84
2023-05-13T17:11:05.171Z,97889.19
2023-05-13T17:13:33.277Z,97851.28
2023-05-13T17:16:01.401Z,97896.13
2023-05-13T17:18:29.553Z,97895.25
2023-05-13T17:20:57.713Z,97888.16
2023-05-13T17:23:26.060Z,97889.06
2023-05-13T17:25:55.617Z,97881.22
2023-05-13T17:28:23.821Z,97885.47
2023-05-13T17:30:52.056Z,97894.31
2023-05-13T17:33:20.219Z,97893.69
2023-05-13T17:35:48.528Z,97904.13
2023-05-13T17:38:16.602Z,97901.63
2023-05-13T17:40:44.811Z,97900.66
2023-05-13T17:43:14.375Z,97899.00
2023-05-13T17:45:45.130Z,97889.66
2023-05-13T17:48:13.666Z,97885.25
2023-05-13T17:50:41.873Z,97892.16
2023-05-13T17:53:09.974Z,97889.63
2023-05-13T17:55:38.173Z,97896.50
2023-05-13T17:58:06.346Z,97898.28
2023-05-13T18:00:35.996Z,97897.38
2023-05-13T18:03:04.168Z,97867.25
2023-05-13T18:05:32.506Z,97905.25
2023-05-13T18:08:00.928Z,97899.13
2023-05-13T18:10:29.142Z,97908.72
2023-05-13T18:12:57.343Z,97889.59
2023-05-13T18:15:25.546Z,97903.53
2023-05-13T18:17:55.252Z,97888.81
2023-05-13T18:20:23.865Z,97875.19
2023-05-13T18:22:52.506Z,97909.09
2023-05-13T18:25:20.661Z,97892.97
2023-05-13T18:27:50.279Z,97891.09
2023-05-13T18:30:18.815Z,97909.25
2023-05-13T18:32:48.189Z,97882.50
2023-05-13T18:35:20.063Z,97891.91
2023-05-13T18:37:48.270Z,97905.78
2023-05-13T18:40:16.532Z,97902.28
2023-05-13T18:42:44.764Z,97890.28
2023-05-13T18:45:13.339Z,97910.16
2023-05-13T18:47:41.558Z,97886.84
2023-05-13T18:50:10.608Z,97914.41
2023-05-13T18:52:40.682Z,97908.22
2023-05-13T18:55:09.916Z,97917.94
2023-05-13T18:57:38.396Z,97914.41
2023-05-13T19:00:08.145Z,97899.84
2023-05-13T19:02:36.597Z,97917.13
2023-05-13T19:05:05.395Z,97897.16
2023-05-13T19:07:33.742Z,97915.22
2023-05-13T19:10:03.446Z,97847.28
2023-05-13T19:12:31.611Z,97922.22
2023-05-13T19:14:59.791Z,97912.38
2023-05-13T19:17:28.163Z,97927.63
2023-05-13T19:19:57.538Z,97930.38
2023-05-13T19:22:25.766Z,97934.88
2023-05-13T19:24:54.118Z,97935.69
2023-05-13T19:27:23.926Z,97933.22
2023-05-13T19:29:52.093Z,97934.19
2023-05-13T19:32:20.270Z,97932.56
2023-05-13T19:34:48.461Z,97943.94
2023-05-13T19:37:16.738Z,97926.63
2023-05-13T19:39:45.009Z,97939.63
2023-05-13T19:42:13.267Z,97758.72
2023-05-13T19:44:42.906Z,97929.22
2023-05-13T19:47:11.215Z,97894.06
2023-05-13T19:49:39.582Z,97927.50
2023-05-13T19:52:08.951Z,97910.66
2023-05-13T19:54:37.144Z,97938.94
2023-05-13T19:57:05.502Z,97936.31
2023-05-13T19:59:33.773Z,97934.47
2023-05-13T20:02:03.517Z,97891.41
2023-05-13T20:04:32.380Z,97931.88
2023-05-13T20:07:00.625Z,97925.72
2023-05-13T20:09:28.876Z,97916.06
2023-05-13T20:11:58.177Z,97913.41
2023-05-13T20:14:27.854Z,97897.88
2023-05-13T20:16:56.155Z,97909.94
2023-05-13T20:19:25.963Z,97900.34
2023-05-13T20:21:54.284Z,97912.44
2023-05-13T20:24:22.486Z,97907.28
2023-05-13T20:26:50.700Z,97907.31
2023-05-13T20:29:19.116Z,97906.44
2023-05-13T20:31:47.497Z,97903.00
2023-05-13T20:34:16.449Z,97903.00
2023-05-13T20:36:46.379Z,97900.44
2023-05-13T20:39:14.620Z,97895.19
2023-05-13T20:41:42.815Z,97901.19
2023-05-13T20:44:12.772Z,97904.78
2023-05-13T20:46:40.945Z,97904.78
2023-05-13T20:49:09.165Z,97863.38
2023-05-13T20:51:37.713Z,97894.34
2023-05-13T20:54:09.184Z,97898.56
2023-05-13T20:56:37.364Z,97895.94
2023-05-13T20:59:05.574Z,97887.16
2023-05-13T21:01:34.001Z,97861.28
2023-05-13T21:04:06.157Z,97888.59
2023-05-13T21:06:34.505Z,97896.63
2023-05-13T21:09:02.766Z,97858.91
2023-05-13T21:11:32.365Z,97888.88
2023-05-13T21:14:00.587Z,97873.50
2023-05-13T21:16:28.855Z,97884.75
2023-05-13T21:18:57.151Z,97881.31
2023-05-13T21:21:25.460Z,97877.84
2023-05-13T21:23:53.716Z,97881.22
2023-05-13T21:26:23.063Z,97869.94
2023-05-13T21:28:52.647Z,97791.69
2023-05-13T21:31:20.975Z,97874.38
2023-05-13T21:33:50.086Z,97870.03
2023-05-13T21:36:18.425Z,97872.56
2023-05-13T21:38:46.713Z,97788.25
2023-05-13T21:41:15.020Z,97874.38
2023-05-13T21:43:43.370Z,97879.63
2023-05-13T21:46:13.236Z,97870.84
2023-05-13T21:48:41.495Z,97869.94
2023-05-13T21:51:09.800Z,97865.53
2023-05-13T21:53:38.046Z,97867.25
2023-05-13T21:56:06.708Z,97864.69
2023-05-13T21:58:34.961Z,97866.31
2023-05-13T22:01:03.243Z,97819.03
2023-05-13T22:03:33.233Z,97869.13
2023-05-13T22:06:02.493Z,97842.41
2023-05-13T22:08:30.829Z,97856.06
2023-05-13T22:11:00.236Z,97862.06
2023-05-13T22:13:28.490Z,97859.53
2023-05-13T22:15:56.828Z,97852.72
2023-05-13T22:18:25.427Z,97860.13
2023-05-13T22:20:55.207Z,97866.06
2023-05-13T22:23:23.380Z,97862.88
2023-05-13T22:25:51.584Z,97861.25
2023-05-13T22:28:19.995Z,97862.16
2023-05-13T22:30:48.175Z,97860.50
2023-05-13T22:33:16.388Z,97855.22
2023-05-13T22:35:44.778Z,97812.44
2023-05-13T22:38:14.475Z,97784.75
2023-05-13T22:40:42.615Z,97849.28
2023-05-13T22:43:10.769Z,97771.88
2023-05-13T22:45:39.101Z,97811.59
2023-05-13T22:48:08.148Z,97855.94
2023-05-13T22:50:36.450Z,97858.69
2023-05-13T22:53:04.618Z,97845.41
2023-05-13T22:55:34.172Z,97852.47
2023-05-13T22:58:02.333Z,97846.41
2023-05-13T23:00:30.536Z,97841.00
2023-05-13T23:02:58.706Z,97838.56
2023-05-13T23:05:27.021Z,97836.03
2023-05-13T23:07:55.251Z,97832.63
2023-05-13T23:10:23.777Z,97831.75
2023-05-13T23:12:53.617Z,97829.97
2023-05-13T23:15:21.763Z,97828.22
2023-05-13T23:17:49.991Z,97821.25
2023-05-13T23:20:18.248Z,97817.78
2023-05-13T23:22:46.989Z,97816.00
2023-05-13T23:25:15.380Z,97811.50
2023-05-13T23:27:43.730Z,97618.91
2023-05-13T23:30:14.793Z,97734.88
2023-05-13T23:32:43.253Z,97783.09
2023-05-13T23:35:11.913Z,97801.13
2023-05-13T23:37:40.113Z,97789.78
2023-05-13T23:40:09.446Z,97784.59
2023-05-13T23:42:37.633Z,97780.19
2023-05-13T23:45:06.981Z,97785.44
2023-05-13T23:47:36.596Z,97778.44
2023-05-13T23:50:05.366Z,97769.50
2023-05-13T23:52:33.524Z,97770.16
2023-05-13T23:55:01.735Z,97765.84
2023-05-13T23:57:29.911Z,97766.97
2023-05-13T23:59:58.107Z,97757.31
